Mc Knight, Pennsylvania
Current Conditions -  °F | °C
As of 7:51 AM on Friday 19 Dec 2014 (Local Time) from KPIT Reporting Station
Freezing Drizzle Freezing Drizzle  
Wind Chill: 21°   Ceiling: 800
Heat Index: 28°   Visibility: 3mi
Dew Point: 26°   Wind: 7mph
Humidity: 92%   Direction: 270°W
Pressure: 30.18"   Gusts: NA
Location:  40.5502°N, 80.0492°W
Report Text: KPIT 191251Z 27006KT 3SM -FZDZ BR BKN008 OVC013 M02/M03 A3018 RMK AO2 SNE41 SLP243 P0000 I1000 T10221033
Loading
Personal Weather Stations






























Interactive Weather Map New forecast layout! Learn more

10-Day Weather Forecast

Advertisements
Track Severe Weather on mobile